Hollis, New Hampshire
Current Conditions -  °F | °C
As of 10:51 PM on Friday 24 Oct 2014 (Local Time) from KASH Reporting Station
Clear Clear  
Wind Chill: 43°   Ceiling: Unl
Heat Index: 47°   Visibility: 10mi
Dew Point: 42°   Wind: 8mph
Humidity: 83%   Direction: 320°NW
Pressure: 29.75"   Gusts: NA
Location:  42.74°N, 71.59°W
Report Text: KASH 250251Z AUTO 32007KT 10SM CLR 08/06 A2975 RMK AO2 50001 T00830055 SLP322 $
Loading
Personal Weather Stations






























Interactive Weather Map New forecast layout! Learn more

10-Day Weather Forecast

Advertisements
Track Severe Weather on mobile